Time;durP1;ratioP1;P1;durP2;ratioP2;P2;SDS_P1;SDS_P2;PMS_P1;PMS_P2;Temp;Humidity;BMP_temperature;BMP_pressure;BME280_temperature;BME280_humidity;BME280_pressure;Samples;Min_cycle;Max_cycle;Signal;HPM_P1;HPM_P2
2021/05/04 00:01:18;;;;;;;5.60;5.20;;;13.30;55.10;;;;;;5036660;28;20265;-83
2021/05/04 00:03:44;;;;;;;5.60;5.20;;;13.40;54.80;;;;;;5055108;28;20440;-83
2021/05/04 00:06:10;;;;;;;5.80;5.30;;;13.40;54.90;;;;;;5054076;28;20829;-83
2021/05/04 00:08:36;;;;;;;5.47;4.97;;;13.40;54.60;;;;;;5054794;28;20181;-83
2021/05/04 00:11:02;;;;;;;5.37;4.77;;;13.40;54.80;;;;;;5054282;28;20178;-84
2021/05/04 00:13:28;;;;;;;6.00;5.50;;;13.40;54.50;;;;;;5054967;28;20185;-83
2021/05/04 00:15:53;;;;;;;6.67;6.13;;;13.40;54.80;;;;;;5054335;28;20499;-83
2021/05/04 00:18:19;;;;;;;5.97;5.40;;;13.40;54.70;;;;;;5035832;28;20260;-83
2021/05/04 00:20:45;;;;;;;5.67;5.10;;;13.40;54.60;;;;;;5036758;28;20178;-83
2021/05/04 00:23:11;;;;;;;5.43;5.03;;;13.50;54.50;;;;;;5053525;28;20298;-83
2021/05/04 00:25:36;;;;;;;6.17;5.57;;;13.40;54.60;;;;;;5036992;28;20212;-83
2021/05/04 00:28:02;;;;;;;5.07;4.67;;;13.50;54.60;;;;;;5036153;28;20646;-84
2021/05/04 00:30:28;;;;;;;5.60;5.20;;;13.30;54.90;;;;;;5054656;28;20176;-83
2021/05/04 00:32:54;;;;;;;5.50;5.10;;;13.10;55.00;;;;;;5054150;28;20178;-83
2021/05/04 00:35:19;;;;;;;5.17;4.77;;;13.20;55.10;;;;;;5036284;28;20755;-83
2021/05/04 00:37:45;;;;;;;6.43;4.60;;;13.20;55.20;;;;;;5036886;28;20285;-83
2021/05/04 00:40:11;;;;;;;5.50;5.00;;;13.20;55.10;;;;;;5053330;28;20186;-84
2021/05/04 00:42:37;;;;;;;5.30;4.90;;;13.30;55.20;;;;;;5054119;28;20617;-84
2021/05/04 00:45:05;;;;;;;4.97;4.67;;;13.30;55.00;;;;;;5053868;28;20439;-85
2021/05/04 00:47:30;;;;;;;4.67;4.37;;;13.30;55.00;;;;;;5035902;28;20549;-83
2021/05/04 00:49:56;;;;;;;5.13;4.80;;;13.30;55.10;;;;;;5054286;28;20412;-83
2021/05/04 00:52:22;;;;;;;5.17;4.77;;;13.30;55.30;;;;;;5035697;28;20174;-83
2021/05/04 00:54:48;;;;;;;5.40;4.90;;;13.30;55.40;;;;;;5036159;28;20618;-83
2021/05/04 00:57:14;;;;;;;4.87;4.50;;;13.20;55.50;;;;;;5035220;28;20257;-84
2021/05/04 00:59:41;;;;;;;4.60;4.20;;;13.20;55.40;;;;;;5036335;28;20421;-84
2021/05/04 01:02:08;;;;;;;4.67;4.37;;;13.20;55.40;;;;;;5053124;28;20429;-84
2021/05/04 01:04:34;;;;;;;5.10;4.70;;;13.20;55.60;;;;;;5053967;28;20900;-83
2021/05/04 01:07:00;;;;;;;5.00;4.70;;;13.30;55.50;;;;;;5036118;28;20510;-84
2021/05/04 01:09:26;;;;;;;4.50;4.30;;;13.30;55.20;;;;;;5035019;28;20672;-83
2021/05/04 01:11:52;;;;;;;5.33;5.03;;;13.30;55.10;;;;;;5053133;28;20426;-83
2021/05/04 01:14:18;;;;;;;5.60;5.20;;;13.20;55.50;;;;;;5052831;28;20416;-84
2021/05/04 01:16:49;;;;;;;5.17;4.80;;;13.20;55.70;;;;;;5053362;28;20466;-84
2021/05/04 01:19:18;;;;;;;5.07;4.60;;;13.20;55.70;;;;;;5035225;28;20396;-83
2021/05/04 01:21:44;;;;;;;4.90;4.60;;;13.20;55.70;;;;;;5053967;28;20416;-83
2021/05/04 01:24:11;;;;;;;4.63;4.23;;;13.20;55.50;;;;;;5052454;28;21025;-83
2021/05/04 01:26:39;;;;;;;4.30;4.10;;;13.20;55.60;;;;;;5035728;28;20782;-83
2021/05/04 01:29:05;;;;;;;4.77;4.47;;;13.30;55.70;;;;;;5035173;28;20535;-86
2021/05/04 01:31:31;;;;;;;4.73;4.43;;;13.30;55.60;;;;;;5053227;28;20495;-84
2021/05/04 01:33:57;;;;;;;5.07;4.67;;;13.30;55.50;;;;;;5053612;28;20177;-84
2021/05/04 01:36:23;;;;;;;4.90;4.60;;;13.20;55.50;;;;;;5034609;28;20270;-84
2021/05/04 01:38:49;;;;;;;5.03;4.43;;;13.30;55.50;;;;;;5035943;28;20420;-84
2021/05/04 01:41:15;;;;;;;5.10;4.60;;;13.40;55.60;;;;;;5052506;28;20755;-84
2021/05/04 01:43:40;;;;;;;5.13;4.73;;;13.40;55.60;;;;;;5035517;28;20204;-84
2021/05/04 01:46:06;;;;;;;5.10;4.70;;;13.30;55.80;;;;;;5052391;28;20190;-85
2021/05/04 01:48:32;;;;;;;4.20;4.00;;;13.40;55.70;;;;;;5034951;28;20178;-84
2021/05/04 01:50:58;;;;;;;5.00;4.50;;;13.50;55.60;;;;;;5035150;28;20174;-84
2021/05/04 01:53:24;;;;;;;4.40;4.10;;;13.40;55.60;;;;;;5052267;28;20221;-84
2021/05/04 01:55:49;;;;;;;4.47;4.07;;;13.50;55.60;;;;;;5034595;28;20482;-84
2021/05/04 01:58:17;;;;;;;4.30;4.00;;;13.50;55.30;;;;;;5034263;28;20257;-84
2021/05/04 02:00:43;;;;;;;3.70;3.50;;;13.50;55.50;;;;;;5035236;28;20181;-84
2021/05/04 02:03:08;;;;;;;3.60;3.37;;;13.40;55.50;;;;;;5034042;28;20416;-85
2021/05/04 02:05:34;;;;;;;4.30;4.00;;;13.50;55.40;;;;;;5052902;28;20257;-84
2021/05/04 02:07:59;;;;;;;4.50;4.17;;;13.50;55.60;;;;;;5051998;28;20186;-85
2021/05/04 02:10:25;;;;;;;4.27;3.97;;;13.60;55.60;;;;;;5051989;28;20177;-85
2021/05/04 02:12:51;;;;;;;4.17;3.87;;;13.60;55.40;;;;;;5034831;28;20173;-84
2021/05/04 02:15:17;;;;;;;3.73;3.53;;;13.60;55.40;;;;;;5051909;28;20308;-85
2021/05/04 02:17:43;;;;;;;4.10;3.90;;;13.70;55.50;;;;;;5018369;28;20209;-84
2021/05/04 02:20:10;;;;;;;4.03;3.67;;;13.70;55.40;;;;;;5034325;28;20185;-85
2021/05/04 02:22:36;;;;;;;4.63;4.23;;;13.70;55.50;;;;;;5051296;28;20540;-84
2021/05/04 02:25:03;;;;;;;4.30;4.00;;;13.60;55.50;;;;;;5067734;28;20457;-84
2021/05/04 02:27:29;;;;;;;4.63;4.33;;;13.50;55.70;;;;;;5070513;28;21030;-84
2021/05/04 02:29:54;;;;;;;4.20;3.90;;;13.60;55.80;;;;;;5072336;28;20427;-84
2021/05/04 02:32:20;;;;;;;4.13;3.83;;;13.60;55.50;;;;;;5071499;28;20182;-84
2021/05/04 02:34:46;;;;;;;4.80;4.40;;;13.70;55.50;;;;;;5071256;28;20585;-84
2021/05/04 02:37:12;;;;;;;4.47;4.20;;;13.70;55.40;;;;;;5070780;28;20197;-84
2021/05/04 02:39:37;;;;;;;4.60;4.27;;;13.70;55.40;;;;;;5072201;28;20179;-84
2021/05/04 02:42:03;;;;;;;4.37;3.80;;;13.70;55.50;;;;;;5071079;28;20173;-84
2021/05/04 02:44:29;;;;;;;4.70;4.30;;;13.70;55.70;;;;;;5071261;28;20266;-84
2021/05/04 02:46:55;;;;;;;5.57;4.23;;;13.70;55.60;;;;;;5070894;28;20886;-84
2021/05/04 02:49:20;;;;;;;4.50;4.20;;;13.70;56.70;;;;;;5070030;28;20178;-84
2021/05/04 02:51:46;;;;;;;4.33;4.03;;;13.60;57.40;;;;;;5070742;28;20196;-84
2021/05/04 02:54:12;;;;;;;4.07;3.80;;;13.50;57.40;;;;;;5070150;28;20260;-85
2021/05/04 02:56:38;;;;;;;3.67;3.47;;;13.40;58.50;;;;;;5072072;28;20197;-84
2021/05/04 02:59:03;;;;;;;3.97;3.77;;;13.40;60.10;;;;;;5072159;28;20200;-84
2021/05/04 03:01:29;;;;;;;3.90;3.70;;;13.40;60.70;;;;;;5071392;28;20178;-84
2021/05/04 03:03:55;;;;;;;4.30;4.00;;;13.40;62.40;;;;;;5071842;28;20176;-84
2021/05/04 03:06:20;;;;;;;4.00;3.80;;;13.20;65.80;;;;;;5069684;28;20177;-85
2021/05/04 03:08:46;;;;;;;3.73;3.53;;;13.00;67.90;;;;;;5070861;28;20183;-84
2021/05/04 03:11:13;;;;;;;4.53;4.20;;;12.90;69.90;;;;;;5071664;28;20176;-87
2021/05/04 03:13:38;;;;;;;3.80;3.60;;;12.60;71.80;;;;;;5071785;28;20187;-83
2021/05/04 03:16:04;;;;;;;4.17;3.87;;;12.50;74.10;;;;;;5071128;28;20470;-83
2021/05/04 03:18:30;;;;;;;3.93;3.73;;;12.50;75.10;;;;;;5069287;28;20202;-84
2021/05/04 03:20:56;;;;;;;3.63;3.43;;;12.40;77.60;;;;;;5069401;28;20461;-84
2021/05/04 03:23:23;;;;;;;4.20;3.90;;;12.50;79.30;;;;;;5069611;28;20246;-85
2021/05/04 03:25:49;;;;;;;3.80;3.60;;;12.40;79.30;;;;;;5072014;28;20173;-84
2021/05/04 03:28:15;;;;;;;5.60;3.67;;;12.20;81.30;;;;;;5069934;28;20419;-85
2021/05/04 03:30:42;;;;;;;4.13;3.83;;;12.10;83.70;;;;;;5070822;28;20410;-84
2021/05/04 03:33:08;;;;;;;4.37;3.40;;;12.10;85.10;;;;;;5071930;28;20822;-92
2021/05/04 03:35:34;;;;;;;3.83;3.50;;;12.10;86.30;;;;;;5076885;28;20517;-94
2021/05/04 03:38:00;;;;;;;4.13;3.73;;;11.90;87.60;;;;;;5076636;28;20477;-95
2021/05/04 03:40:27;;;;;;;3.23;3.03;;;11.80;89.60;;;;;;5076236;28;20470;-94
2021/05/04 03:42:52;;;;;;;3.83;3.43;;;11.80;90.40;;;;;;5076493;28;20494;-94
2021/05/04 03:45:18;;;;;;;3.83;3.63;;;11.70;90.80;;;;;;5075402;28;20430;-96
2021/05/04 03:47:45;;;;;;;5.37;3.40;;;11.70;91.50;;;;;;5076918;28;20187;-95
2021/05/04 03:50:18;;;;;;;3.70;3.50;;;11.60;91.60;;;;;;5076329;28;20210;-93
2021/05/04 03:52:44;;;;;;;4.07;3.77;;;11.60;92.20;;;;;;5076386;28;20959;-94
2021/05/04 03:55:10;;;;;;;4.53;4.13;;;11.60;93.10;;;;;;5077561;28;20414;-94
2021/05/04 03:57:36;;;;;;;4.60;4.30;;;11.50;93.50;;;;;;5080711;28;20456;-93
2021/05/04 04:00:04;;;;;;;3.87;3.67;;;11.50;93.50;;;;;;5082888;28;20421;-93
2021/05/04 04:02:30;;;;;;;3.90;3.60;;;11.50;93.60;;;;;;5079030;28;20673;-94
2021/05/04 04:04:56;;;;;;;4.40;3.33;;;11.40;94.30;;;;;;5077451;28;20406;-93
2021/05/04 04:07:21;;;;;;;4.20;3.80;;;11.40;94.60;;;;;;5075316;28;20185;-93
2021/05/04 04:09:47;;;;;;;3.70;3.40;;;11.30;94.90;;;;;;5076560;28;20170;-93
2021/05/04 04:12:13;;;;;;;3.87;3.67;;;11.40;95.20;;;;;;5075887;28;20267;-93
2021/05/04 04:14:39;;;;;;;5.43;4.37;;;11.30;95.70;;;;;;5076260;28;20428;-94
2021/05/04 04:17:06;;;;;;;5.03;4.70;;;11.30;96.50;;;;;;5075781;28;20453;-93
2021/05/04 04:19:32;;;;;;;5.60;4.10;;;11.20;96.40;;;;;;5074786;28;20188;-95
2021/05/04 04:21:58;;;;;;;5.10;4.80;;;11.20;96.70;;;;;;5075330;28;20409;-94
2021/05/04 04:24:23;;;;;;;4.27;3.97;;;11.20;96.80;;;;;;5062201;28;20226;-93
2021/05/04 04:26:49;;;;;;;4.63;4.30;;;11.20;96.90;;;;;;5038604;28;20183;-93
2021/05/04 04:29:15;;;;;;;4.80;4.40;;;11.20;96.80;;;;;;5055312;28;20188;-92
2021/05/04 04:31:41;;;;;;;4.60;4.20;;;11.10;96.70;;;;;;5038504;28;20171;-93
2021/05/04 04:34:08;;;;;;;4.63;4.30;;;11.10;96.90;;;;;;5038530;28;20170;-93
2021/05/04 04:36:34;;;;;;;3.93;3.73;;;11.10;97.00;;;;;;5054640;28;20444;-93
2021/05/04 04:39:01;;;;;;;4.33;4.03;;;11.10;97.10;;;;;;5038213;28;20413;-93
2021/05/04 04:41:27;;;;;;;7.40;4.13;;;11.10;97.10;;;;;;5055011;28;20406;-92
2021/05/04 04:43:52;;;;;;;3.50;3.30;;;10.80;97.20;;;;;;5038212;28;20408;-92
2021/05/04 04:46:18;;;;;;;4.50;3.53;;;10.80;97.40;;;;;;5035070;28;20523;-91
2021/05/04 04:48:44;;;;;;;8.10;4.03;;;10.80;97.50;;;;;;5055624;28;20628;-93
2021/05/04 04:51:10;;;;;;;5.20;4.70;;;10.70;97.50;;;;;;5055674;28;20636;-94
2021/05/04 04:53:35;;;;;;;5.37;4.00;;;10.70;97.70;;;;;;5054523;28;20405;-95
2021/05/04 04:56:01;;;;;;;3.83;3.63;;;10.50;97.70;;;;;;5037250;28;20364;-95
2021/05/04 04:58:27;;;;;;;4.00;3.80;;;10.70;98.10;;;;;;5036692;28;20215;-94
2021/05/04 05:00:54;;;;;;;4.10;3.90;;;10.70;97.70;;;;;;5054783;28;20185;-93
2021/05/04 05:03:20;;;;;;;4.30;4.10;;;10.80;97.00;;;;;;5037040;28;20179;-94
2021/05/04 05:05:46;;;;;;;3.63;3.33;;;10.80;96.30;;;;;;5055291;28;20424;-93
2021/05/04 05:08:11;;;;;;;3.70;3.50;;;10.80;96.00;;;;;;5037255;28;20775;-94
2021/05/04 05:10:37;;;;;;;3.50;3.30;;;10.80;96.00;;;;;;5054658;28;20170;-94
2021/05/04 05:13:03;;;;;;;4.60;4.30;;;10.80;95.40;;;;;;5037588;28;20277;-93
2021/05/04 05:15:29;;;;;;;4.13;3.83;;;10.70;94.50;;;;;;5036925;28;20630;-92
2021/05/04 05:17:55;;;;;;;3.93;3.73;;;10.70;95.00;;;;;;5055079;28;20251;-94
2021/05/04 05:20:21;;;;;;;3.60;3.40;;;10.70;94.30;;;;;;5037413;28;20426;-92
2021/05/04 05:22:46;;;;;;;3.50;3.20;;;10.70;94.60;;;;;;5037591;28;20173;-95
2021/05/04 05:25:13;;;;;;;4.07;3.87;;;10.70;94.20;;;;;;5055445;28;20245;-94
2021/05/04 05:27:39;;;;;;;4.67;3.70;;;10.70;94.10;;;;;;5036762;28;20416;-94
2021/05/04 05:30:07;;;;;;;3.80;3.60;;;10.70;93.80;;;;;;5037070;28;20414;-94
2021/05/04 05:32:33;;;;;;;3.80;3.60;;;10.70;94.00;;;;;;5035974;28;20424;-95
2021/05/04 05:35:00;;;;;;;3.67;3.47;;;10.80;94.00;;;;;;5020730;28;20420;-94
2021/05/04 05:37:26;;;;;;;3.30;3.20;;;10.90;94.10;;;;;;5053857;28;20195;-93
2021/05/04 05:39:51;;;;;;;3.60;3.50;;;10.90;94.10;;;;;;5036814;28;20445;-95
2021/05/04 05:42:18;;;;;;;2.90;2.80;;;10.80;93.90;;;;;;5054893;28;20413;-91
2021/05/04 05:44:44;;;;;;;3.57;3.37;;;10.80;94.00;;;;;;5036508;28;20639;-93
2021/05/04 05:47:09;;;;;;;3.23;3.03;;;10.90;94.00;;;;;;5054131;28;20499;-93
2021/05/04 05:49:37;;;;;;;3.33;3.03;;;10.80;93.20;;;;;;5036768;28;20620;-95
2021/05/04 05:52:03;;;;;;;3.57;3.27;;;10.90;93.10;;;;;;5024017;28;20204;-93
2021/05/04 05:54:32;;;;;;;3.20;3.00;;;10.80;93.60;;;;;;5060904;28;20430;-92
2021/05/04 05:56:58;;;;;;;3.60;3.40;;;10.80;93.60;;;;;;5065332;28;20522;-93
2021/05/04 05:59:24;;;;;;;3.50;3.30;;;10.90;94.00;;;;;;5064935;28;20453;-93
2021/05/04 06:01:50;;;;;;;3.60;3.40;;;10.90;94.40;;;;;;5057219;28;20412;-94
2021/05/04 06:04:16;;;;;;;4.00;3.80;;;10.80;94.90;;;;;;5035927;28;20444;-94
2021/05/04 06:06:41;;;;;;;4.70;3.37;;;10.80;95.30;;;;;;5023982;28;20426;-93
2021/05/04 06:09:08;;;;;;;3.50;3.40;;;10.70;95.80;;;;;;5039166;28;20178;-94
2021/05/04 06:11:34;;;;;;;3.77;3.47;;;10.70;96.50;;;;;;5054642;28;20182;-94
2021/05/04 06:13:59;;;;;;;4.13;3.93;;;10.70;96.60;;;;;;5040365;28;20429;-93
2021/05/04 06:16:25;;;;;;;3.87;3.57;;;10.70;96.80;;;;;;5036190;28;20276;-92
2021/05/04 06:18:51;;;;;;;3.67;3.47;;;10.60;96.70;;;;;;5053982;28;20183;-94
2021/05/04 06:21:32;;;;;;;3.87;3.67;;;10.60;96.50;;;;;;5040129;28;20187;-86
2021/05/04 06:23:58;;;;;;;3.70;3.40;;;10.60;96.50;;;;;;5056584;28;20804;-90
2021/05/04 06:26:24;;;;;;;4.40;4.00;;;10.80;96.20;;;;;;5059512;28;20424;-91
2021/05/04 06:28:50;;;;;;;4.97;4.67;;;10.70;96.00;;;;;;5045148;28;20206;-91
2021/05/04 06:31:17;;;;;;;4.00;3.80;;;10.60;95.50;;;;;;5063005;28;20413;-91
2021/05/04 06:33:44;;;;;;;7.23;3.80;;;10.60;95.70;;;;;;5064951;28;21298;-93
2021/05/04 06:36:10;;;;;;;3.50;3.20;;;10.80;95.80;;;;;;5067135;28;20445;-90
2021/05/04 06:38:36;;;;;;;3.17;3.07;;;10.80;95.50;;;;;;5059036;28;20428;-90
2021/05/04 06:41:03;;;;;;;3.67;3.47;;;10.80;95.40;;;;;;5045539;28;20447;-88
2021/05/04 06:43:29;;;;;;;4.43;2.87;;;10.80;95.70;;;;;;5060125;28;20445;-86
2021/05/04 06:45:55;;;;;;;3.42;3.13;;;11.00;95.10;;;;;;5035773;28;20514;-91
2021/05/04 06:48:20;;;;;;;3.40;3.20;;;11.10;94.20;;;;;;5053560;28;20177;-88
2021/05/04 06:50:46;;;;;;;3.53;3.20;;;11.00;94.60;;;;;;5052686;28;20412;-91
2021/05/04 06:53:12;;;;;;;4.70;4.40;;;11.10;94.50;;;;;;5035182;28;20177;-90
2021/05/04 06:55:38;;;;;;;2.53;2.43;;;11.10;94.00;;;;;;5051832;28;20184;-91
2021/05/04 06:58:03;;;;;;;2.93;2.63;;;11.00;94.30;;;;;;5034884;28;20198;-91
2021/05/04 07:00:29;;;;;;;3.40;3.20;;;11.10;94.20;;;;;;5051640;28;20266;-91
2021/05/04 07:02:55;;;;;;;2.97;2.83;;;11.10;94.00;;;;;;5034915;28;20414;-93
2021/05/04 07:05:21;;;;;;;3.20;3.10;;;11.20;94.20;;;;;;5052567;28;20408;-92
2021/05/04 07:07:47;;;;;;;3.10;2.90;;;11.20;93.80;;;;;;5017616;28;20181;-91
2021/05/04 07:10:13;;;;;;;3.20;3.00;;;11.20;93.90;;;;;;5038121;28;20437;-90
2021/05/04 07:12:40;;;;;;;3.70;3.50;;;11.20;94.20;;;;;;5037580;28;20428;-89
2021/05/04 07:15:07;;;;;;;4.13;3.93;;;11.20;94.20;;;;;;5038222;28;20635;-91
2021/05/04 07:17:32;;;;;;;3.47;3.37;;;11.20;94.40;;;;;;5037429;28;20469;-90
2021/05/04 07:19:58;;;;;;;3.43;3.23;;;11.20;94.50;;;;;;5038754;28;20430;-90
2021/05/04 07:22:26;;;;;;;3.57;3.37;;;11.00;95.10;;;;;;5037686;28;20830;-88
2021/05/04 07:24:53;;;;;;;3.87;3.70;;;11.00;95.60;;;;;;5055375;28;20219;-92
2021/05/04 07:27:19;;;;;;;3.37;3.13;;;10.90;96.00;;;;;;5057244;28;20459;-93
2021/05/04 07:29:45;;;;;;;3.80;3.60;;;10.80;96.70;;;;;;5038944;28;20534;-92
2021/05/04 07:32:11;;;;;;;3.97;3.77;;;10.80;96.60;;;;;;5056531;28;20464;-93
2021/05/04 07:34:37;;;;;;;4.40;4.20;;;10.80;96.70;;;;;;5055909;28;20174;-92
2021/05/04 07:37:03;;;;;;;4.50;4.30;;;10.90;96.90;;;;;;5039002;28;20662;-91
2021/05/04 07:39:29;;;;;;;4.67;4.53;;;10.90;96.90;;;;;;5038053;28;20427;-88
2021/05/04 07:41:55;;;;;;;5.43;3.47;;;10.90;96.90;;;;;;5056437;28;20434;-93
2021/05/04 07:44:21;;;;;;;3.13;3.00;;;10.90;97.00;;;;;;5056232;28;20200;-90
2021/05/04 07:46:47;;;;;;;3.20;3.10;;;10.90;97.00;;;;;;5055797;28;20177;-92
2021/05/04 07:49:20;;;;;;;3.37;3.07;;;10.90;96.90;;;;;;5056104;28;20418;-93
2021/05/04 07:51:46;;;;;;;2.97;2.77;;;11.00;96.80;;;;;;5055703;28;20453;-92
2021/05/04 07:54:12;;;;;;;2.97;2.77;;;11.00;96.70;;;;;;5056061;28;20411;-91
2021/05/04 07:56:39;;;;;;;3.13;2.93;;;10.90;97.00;;;;;;5037177;28;20198;-91
2021/05/04 07:59:05;;;;;;;3.00;2.80;;;10.90;97.50;;;;;;5055806;28;20450;-91
2021/05/04 08:01:31;;;;;;;4.10;3.13;;;10.80;98.30;;;;;;5037822;28;20948;-90
2021/05/04 08:03:57;;;;;;;3.80;3.60;;;10.90;99.00;;;;;;5055643;28;20384;-91
2021/05/04 08:06:22;;;;;;;3.53;3.23;;;10.90;99.40;;;;;;5055429;28;20193;-91
2021/05/04 08:08:48;;;;;;;3.30;3.10;;;11.00;99.60;;;;;;5055062;28;20174;-88
2021/05/04 08:11:14;;;;;;;3.90;3.60;;;10.90;99.20;;;;;;5055016;28;20498;-91
2021/05/04 08:13:39;;;;;;;3.33;3.07;;;11.00;99.40;;;;;;5054610;28;20216;-90
2021/05/04 08:16:08;;;;;;;3.67;3.37;;;10.90;99.80;;;;;;5055218;28;20174;-92
2021/05/04 08:18:34;;;;;;;3.70;3.40;;;10.90;99.90;;;;;;5055005;28;20702;-92
2021/05/04 08:21:00;;;;;;;3.50;3.20;;;10.90;99.90;;;;;;5055424;28;20560;-91
2021/05/04 08:23:26;;;;;;;3.37;3.20;;;11.00;99.90;;;;;;5054980;28;20544;-80
2021/05/04 08:25:53;;;;;;;3.00;2.90;;;11.00;99.90;;;;;;5055484;28;20212;-91
2021/05/04 08:28:19;;;;;;;3.37;3.07;;;11.10;99.90;;;;;;5055041;28;20411;-90
2021/05/04 08:30:45;;;;;;;3.40;3.30;;;11.10;99.90;;;;;;5054610;28;20456;-90
2021/05/04 08:33:11;;;;;;;3.70;3.50;;;11.10;99.90;;;;;;5055337;28;21005;-91
2021/05/04 08:35:37;;;;;;;3.60;3.40;;;11.10;99.90;;;;;;5054477;28;20210;-91
2021/05/04 08:38:03;;;;;;;3.50;3.40;;;11.10;99.90;;;;;;5054730;28;20527;-91
2021/05/04 08:40:29;;;;;;;3.83;3.43;;;11.10;99.90;;;;;;5054184;28;20174;-90
2021/05/04 08:42:55;;;;;;;4.00;3.70;;;11.10;99.90;;;;;;5054999;28;20251;-92
2021/05/04 08:45:21;;;;;;;3.77;3.57;;;11.10;99.90;;;;;;5055086;28;20498;-91
2021/05/04 08:47:49;;;;;;;3.77;3.60;;;11.10;99.90;;;;;;5054490;28;20798;-92
2021/05/04 08:50:20;;;;;;;3.47;3.27;;;11.10;99.90;;;;;;5037105;28;20922;-91
2021/05/04 08:52:46;;;;;;;3.70;3.50;;;11.10;99.90;;;;;;5054403;28;20765;-93
2021/05/04 08:55:13;;;;;;;3.43;3.03;;;11.20;99.90;;;;;;5037220;28;20405;-93
2021/05/04 08:57:39;;;;;;;3.50;3.20;;;11.30;99.90;;;;;;5053673;28;20273;-92
2021/05/04 09:00:10;;;;;;;3.50;3.30;;;11.40;99.90;;;;;;5054694;28;20748;-91
2021/05/04 09:02:57;;;;;;;3.50;3.30;;;11.50;99.90;;;;;;5054242;28;20411;-91
2021/05/04 09:05:23;;;;;;;4.83;4.60;;;11.60;99.90;;;;;;5037359;28;20794;-91
2021/05/04 09:07:50;;;;;;;4.00;3.60;;;11.70;99.50;;;;;;5054140;28;20414;-92
2021/05/04 09:10:34;;;;;;;4.30;4.00;;;11.70;99.80;;;;;;5054557;28;20486;-91
2021/05/04 09:13:10;;;;;;;4.13;3.93;;;11.70;99.60;;;;;;5036953;28;20403;-91
2021/05/04 09:15:59;;;;;;;4.60;4.40;;;11.70;99.50;;;;;;5054174;28;20404;-91
2021/05/04 09:21:06;;;;;;;3.37;3.20;;;11.70;99.70;;;;;;5054893;28;20894;-91
2021/05/04 09:23:32;;;;;;;3.23;3.03;;;11.80;99.90;;;;;;5054285;28;20808;-89
2021/05/04 09:25:58;;;;;;;3.13;2.93;;;11.80;99.90;;;;;;5057355;28;20416;-90
2021/05/04 09:28:25;;;;;;;3.00;2.90;;;11.90;99.90;;;;;;5064144;28;20453;-93
2021/05/04 09:30:56;;;;;;;4.40;4.00;;;11.90;99.40;;;;;;5059912;28;20411;-90
2021/05/04 09:33:22;;;;;;;3.40;3.20;;;11.80;99.90;;;;;;5056843;28;20906;-91
2021/05/04 09:35:48;;;;;;;3.73;3.53;;;11.90;99.80;;;;;;5053659;28;20419;-90
2021/05/04 09:38:16;;;;;;;3.30;3.20;;;12.00;99.90;;;;;;5054016;28;20473;-91
2021/05/04 09:40:43;;;;;;;3.47;3.27;;;12.00;99.50;;;;;;5035932;28;20421;-90
2021/05/04 09:43:13;;;;;;;3.30;3.00;;;12.00;99.60;;;;;;5053870;28;20889;-90
2021/05/04 09:45:45;;;;;;;3.53;3.33;;;12.10;99.90;;;;;;5053024;28;20876;-90
2021/05/04 09:48:22;;;;;;;3.40;3.17;;;12.20;99.90;;;;;;5055535;28;20767;-92
2021/05/04 09:51:23;;;;;;;3.00;2.90;;;12.20;99.20;;;;;;5054961;28;20896;-91
2021/05/04 09:56:32;;;;;;;3.57;3.37;;;12.00;99.90;;;;;;5055136;28;20526;-91
2021/05/04 09:58:58;;;;;;;2.90;2.80;;;12.00;99.90;;;;;;5055007;28;20410;-91
2021/05/04 10:01:24;;;;;;;3.53;3.03;;;11.90;99.90;;;;;;5055154;28;20423;-91
2021/05/04 10:03:51;;;;;;;4.40;4.00;;;11.90;99.90;;;;;;5054128;28;20173;-92
2021/05/04 10:06:18;;;;;;;4.47;4.13;;;11.90;99.90;;;;;;5056731;28;20441;-91
2021/05/04 10:08:45;;;;;;;5.20;4.90;;;11.80;99.90;;;;;;5055358;28;20415;-92
2021/05/04 10:11:20;;;;;;;4.50;4.10;;;11.70;99.90;;;;;;5038177;28;20800;-90
2021/05/04 10:13:54;;;;;;;4.13;3.93;;;11.70;99.90;;;;;;5039674;28;20453;-92
2021/05/04 10:16:25;;;;;;;3.83;3.60;;;11.80;99.90;;;;;;5056522;28;20502;-90
2021/05/04 10:18:52;;;;;;;4.37;3.97;;;11.70;99.90;;;;;;5037132;28;20500;-92
2021/05/04 10:21:18;;;;;;;4.27;3.97;;;11.70;99.90;;;;;;5056778;28;20791;-91
2021/05/04 10:23:50;;;;;;;4.07;3.77;;;11.80;99.90;;;;;;5056333;28;20537;-92
2021/05/04 10:26:18;;;;;;;5.53;5.03;;;11.90;99.90;;;;;;5037633;28;20408;-91
2021/05/04 10:28:54;;;;;;;4.27;3.90;;;12.00;99.90;;;;;;5056783;28;20422;-91
2021/05/04 10:31:36;;;;;;;4.27;4.03;;;12.00;99.90;;;;;;5054934;28;20481;-92
2021/05/04 10:34:24;;;;;;;4.47;4.10;;;12.10;99.90;;;;;;5036058;28;20427;-91
2021/05/04 10:36:57;;;;;;;3.83;3.60;;;12.20;99.90;;;;;;5053981;28;20847;-92
2021/05/04 10:39:43;;;;;;;4.40;4.00;;;12.40;99.90;;;;;;5054469;28;20466;-91
2021/05/04 10:42:11;;;;;;;3.63;3.43;;;12.50;99.90;;;;;;5038600;28;20753;-94
2021/05/04 10:44:58;;;;;;;5.20;4.80;;;12.60;99.90;;;;;;5037649;28;20419;-91
2021/05/04 10:47:44;;;;;;;4.40;4.00;;;12.50;99.90;;;;;;5020893;28;20431;-91
2021/05/04 10:50:12;;;;;;;2.90;2.70;;;12.60;99.90;;;;;;5055159;28;20478;-90
2021/05/04 10:52:58;;;;;;;3.17;2.97;;;12.50;99.90;;;;;;5052826;28;20419;-93
2021/05/04 10:55:53;;;;;;;2.57;2.47;;;12.50;99.90;;;;;;5053496;28;20875;-92
2021/05/04 10:58:25;;;;;;;3.77;3.57;;;12.40;99.90;;;;;;5041474;28;20453;-90
2021/05/04 11:00:56;;;;;;;5.07;2.90;;;12.40;99.90;;;;;;5037301;28;20424;-92
2021/05/04 11:03:31;;;;;;;3.87;3.67;;;12.40;99.90;;;;;;5055960;28;20409;-92
2021/05/04 11:06:23;;;;;;;3.30;3.07;;;12.50;99.90;;;;;;5054701;28;20494;-92
2021/05/04 11:08:49;;;;;;;4.30;3.27;;;12.70;99.90;;;;;;5015702;28;20428;-93
2021/05/04 11:11:29;;;;;;;4.10;3.80;;;12.80;99.90;;;;;;5054421;28;20792;-91
2021/05/04 11:14:00;;;;;;;3.73;3.53;;;12.90;99.90;;;;;;5054540;28;20172;-91
2021/05/04 11:16:36;;;;;;;4.20;3.80;;;13.00;99.90;;;;;;5053365;28;20471;-93
2021/05/04 11:19:42;;;;;;;3.70;3.33;;;13.20;99.90;;;;;;5053911;28;20499;-92
2021/05/04 11:22:16;;;;;;;4.17;3.83;;;13.30;99.90;;;;;;5055935;28;20443;-93
2021/05/04 11:24:48;;;;;;;5.00;4.60;;;13.50;99.90;;;;;;5063851;28;20452;-93
2021/05/04 11:27:16;;;;;;;5.10;3.53;;;13.80;99.90;;;;;;5074550;28;20404;-92
2021/05/04 11:29:42;;;;;;;5.93;4.57;;;14.00;99.90;;;;;;5072955;28;20513;-92
2021/05/04 11:32:27;;;;;;;6.33;4.23;;;14.10;99.00;;;;;;5074901;28;20409;-93
2021/05/04 11:34:53;;;;;;;4.13;3.70;;;14.20;99.10;;;;;;5073613;28;20413;-90
2021/05/04 11:37:19;;;;;;;4.47;4.07;;;14.40;98.10;;;;;;5073933;28;20502;-91
2021/05/04 11:39:51;;;;;;;5.20;3.40;;;14.50;97.70;;;;;;5073160;28;20410;-92
2021/05/04 11:42:18;;;;;;;6.67;3.97;;;14.50;96.10;;;;;;5074550;28;20530;-90
2021/05/04 11:44:45;;;;;;;5.10;3.50;;;14.60;95.60;;;;;;5072608;28;20417;-94
2021/05/04 11:47:27;;;;;;;6.13;3.30;;;14.70;95.30;;;;;;5073388;28;20414;-92
2021/05/04 11:50:10;;;;;;;5.33;4.40;;;14.60;94.30;;;;;;5072499;28;20430;-92
2021/05/04 11:52:38;;;;;;;7.80;4.53;;;14.60;95.70;;;;;;5073791;28;20393;-91
2021/05/04 11:55:10;;;;;;;4.10;3.33;;;14.40;95.90;;;;;;5075269;28;20491;-90
2021/05/04 11:57:37;;;;;;;4.43;3.70;;;14.20;94.60;;;;;;5077661;28;20876;-91
2021/05/04 12:00:05;;;;;;;4.63;2.93;;;13.90;94.50;;;;;;5077431;28;20916;-92
2021/05/04 12:02:33;;;;;;;5.00;3.90;;;13.60;94.70;;;;;;5077692;28;20425;-90
2021/05/04 12:04:59;;;;;;;8.07;4.80;;;13.30;96.10;;;;;;5078077;28;20797;-91
2021/05/04 12:07:35;;;;;;;5.90;4.00;;;13.20;97.80;;;;;;5078277;28;20410;-92
2021/05/04 12:10:03;;;;;;;4.23;3.20;;;13.20;96.20;;;;;;5076477;28;20488;-92
2021/05/04 12:12:50;;;;;;;5.47;4.33;;;13.50;96.90;;;;;;5076705;28;20769;-92
2021/05/04 12:15:18;;;;;;;7.43;4.20;;;13.80;95.20;;;;;;5077322;28;20451;-92
2021/05/04 12:18:17;;;;;;;8.27;3.70;;;14.00;94.20;;;;;;5079347;28;20466;-91
2021/05/04 12:21:11;;;;;;;7.80;3.50;;;14.00;93.70;;;;;;5091282;28;20401;-82
2021/05/04 12:23:40;;;;;;;5.03;4.00;;;14.20;92.40;;;;;;5076968;28;20557;-91
2021/05/04 12:26:12;;;;;;;5.40;3.80;;;14.60;91.20;;;;;;5055494;28;20434;-91
2021/05/04 12:28:53;;;;;;;4.40;3.13;;;14.90;91.50;;;;;;5055402;28;20434;-91
2021/05/04 12:31:39;;;;;;;4.97;3.60;;;15.10;91.00;;;;;;5055353;28;20407;-91
2021/05/04 12:34:05;;;;;;;5.50;3.43;;;15.30;85.50;;;;;;5054585;28;20419;-90
2021/05/04 12:36:44;;;;;;;4.70;3.33;;;15.30;83.90;;;;;;5055262;28;20807;-93
2021/05/04 12:39:31;;;;;;;5.70;3.53;;;15.20;82.20;;;;;;5055455;28;20415;-92
2021/05/04 12:42:00;;;;;;;4.47;3.10;;;15.20;83.90;;;;;;5054661;28;20396;-91
2021/05/04 12:44:27;;;;;;;6.80;3.97;;;15.00;82.90;;;;;;5055013;28;20500;-92
2021/05/04 12:46:55;;;;;;;7.93;3.43;;;14.90;85.50;;;;;;5054577;28;20533;-92
2021/05/04 12:49:38;;;;;;;4.97;3.30;;;14.70;87.20;;;;;;5055213;28;20554;-92
2021/05/04 12:52:17;;;;;;;4.47;3.53;;;14.70;85.20;;;;;;5054474;28;20395;-92
2021/05/04 12:54:45;;;;;;;5.93;3.23;;;14.70;86.40;;;;;;5054565;28;20437;-90
2021/05/04 12:57:21;;;;;;;8.70;4.20;;;14.60;84.70;;;;;;5055036;28;20792;-92
2021/05/04 12:59:47;;;;;;;5.17;3.27;;;14.70;83.80;;;;;;5053740;28;20886;-91